sensor_id;sensor_type;location;lat;lon;timestamp;P1;durP1;ratioP1;P2;durP2;ratioP2
2824;SDS011;1420;51.324;12.344;2023-04-06T00:00:10;535.37;;;505.93;;
2824;SDS011;1420;51.324;12.344;2023-04-06T00:02:38;601.00;;;567.82;;
2824;SDS011;1420;51.324;12.344;2023-04-06T00:05:06;554.22;;;523.88;;
2824;SDS011;1420;51.324;12.344;2023-04-06T00:07:34;543.20;;;513.72;;
2824;SDS011;1420;51.324;12.344;2023-04-06T00:10:02;572.92;;;541.87;;
2824;SDS011;1420;51.324;12.344;2023-04-06T00:12:28;577.43;;;546.60;;
2824;SDS011;1420;51.324;12.344;2023-04-06T00:14:56;534.27;;;504.88;;
2824;SDS011;1420;51.324;12.344;2023-04-06T00:17:24;561.75;;;530.68;;
2824;SDS011;1420;51.324;12.344;2023-04-06T00:19:52;547.20;;;517.57;;
2824;SDS011;1420;51.324;12.344;2023-04-06T00:22:20;514.52;;;486.33;;
2824;SDS011;1420;51.324;12.344;2023-04-06T00:24:47;561.85;;;530.93;;
2824;SDS011;1420;51.324;12.344;2023-04-06T00:27:14;557.82;;;526.90;;
2824;SDS011;1420;51.324;12.344;2023-04-06T00:29:41;537.23;;;508.77;;
2824;SDS011;1420;51.324;12.344;2023-04-06T00:32:08;533.45;;;504.48;;
2824;SDS011;1420;51.324;12.344;2023-04-06T00:34:36;526.58;;;498.28;;
2824;SDS011;1420;51.324;12.344;2023-04-06T00:37:04;603.82;;;571.97;;
2824;SDS011;1420;51.324;12.344;2023-04-06T00:39:31;541.47;;;513.42;;
2824;SDS011;1420;51.324;12.344;2023-04-06T00:41:58;569.77;;;539.27;;
2824;SDS011;1420;51.324;12.344;2023-04-06T00:44:25;496.97;;;469.73;;
2824;SDS011;1420;51.324;12.344;2023-04-06T00:46:52;479.87;;;454.50;;
2824;SDS011;1420;51.324;12.344;2023-04-06T00:49:20;530.72;;;502.55;;
2824;SDS011;1420;51.324;12.344;2023-04-06T00:51:48;509.80;;;483.10;;
2824;SDS011;1420;51.324;12.344;2023-04-06T00:54:16;545.52;;;517.00;;
2824;SDS011;1420;51.324;12.344;2023-04-06T00:56:43;551.50;;;521.53;;
2824;SDS011;1420;51.324;12.344;2023-04-06T00:59:10;528.60;;;500.02;;
2824;SDS011;1420;51.324;12.344;2023-04-06T01:01:37;510.80;;;483.28;;
2824;SDS011;1420;51.324;12.344;2023-04-06T01:04:04;517.02;;;488.63;;
2824;SDS011;1420;51.324;12.344;2023-04-06T01:06:32;532.93;;;505.12;;
2824;SDS011;1420;51.324;12.344;2023-04-06T01:09:00;565.15;;;535.73;;
2824;SDS011;1420;51.324;12.344;2023-04-06T01:11:28;479.55;;;453.55;;
2824;SDS011;1420;51.324;12.344;2023-04-06T01:13:55;486.60;;;460.25;;
2824;SDS011;1420;51.324;12.344;2023-04-06T01:16:22;512.67;;;485.25;;
2824;SDS011;1420;51.324;12.344;2023-04-06T01:18:49;511.73;;;484.50;;
2824;SDS011;1420;51.324;12.344;2023-04-06T01:21:16;536.30;;;507.85;;
2824;SDS011;1420;51.324;12.344;2023-04-06T01:23:44;560.53;;;530.73;;
2824;SDS011;1420;51.324;12.344;2023-04-06T01:26:12;574.60;;;543.85;;
2824;SDS011;1420;51.324;12.344;2023-04-06T01:28:39;577.62;;;546.30;;
2824;SDS011;1420;51.324;12.344;2023-04-06T01:31:07;546.00;;;516.53;;
2824;SDS011;1420;51.324;12.344;2023-04-06T01:33:33;538.45;;;509.67;;
2824;SDS011;1420;51.324;12.344;2023-04-06T01:36:01;556.58;;;525.83;;
2824;SDS011;1420;51.324;12.344;2023-04-06T01:38:28;548.42;;;518.72;;
2824;SDS011;1420;51.324;12.344;2023-04-06T01:40:56;551.23;;;520.33;;
2824;SDS011;1420;51.324;12.344;2023-04-06T01:43:23;553.28;;;523.73;;
2824;SDS011;1420;51.324;12.344;2023-04-06T01:45:50;526.27;;;498.17;;
2824;SDS011;1420;51.324;12.344;2023-04-06T01:48:18;501.80;;;474.67;;
2824;SDS011;1420;51.324;12.344;2023-04-06T01:50:45;513.35;;;485.73;;
2824;SDS011;1420;51.324;12.344;2023-04-06T01:53:12;576.83;;;546.00;;
2824;SDS011;1420;51.324;12.344;2023-04-06T01:55:40;578.33;;;546.88;;
2824;SDS011;1420;51.324;12.344;2023-04-06T01:58:07;544.30;;;515.10;;
2824;SDS011;1420;51.324;12.344;2023-04-06T02:00:34;553.25;;;522.33;;
2824;SDS011;1420;51.324;12.344;2023-04-06T02:03:01;580.73;;;548.92;;
2824;SDS011;1420;51.324;12.344;2023-04-06T02:05:29;547.65;;;516.45;;
2824;SDS011;1420;51.324;12.344;2023-04-06T02:07:56;540.95;;;511.50;;
2824;SDS011;1420;51.324;12.344;2023-04-06T02:10:24;540.35;;;511.10;;
2824;SDS011;1420;51.324;12.344;2023-04-06T02:12:52;552.32;;;521.53;;
2824;SDS011;1420;51.324;12.344;2023-04-06T02:15:20;555.12;;;525.58;;
2824;SDS011;1420;51.324;12.344;2023-04-06T02:17:47;510.65;;;483.28;;
2824;SDS011;1420;51.324;12.344;2023-04-06T02:20:14;465.15;;;439.43;;
2824;SDS011;1420;51.324;12.344;2023-04-06T02:22:41;512.83;;;485.77;;
2824;SDS011;1420;51.324;12.344;2023-04-06T02:25:09;507.18;;;479.93;;
2824;SDS011;1420;51.324;12.344;2023-04-06T02:27:36;474.85;;;448.88;;
2824;SDS011;1420;51.324;12.344;2023-04-06T02:30:03;465.18;;;439.75;;
2824;SDS011;1420;51.324;12.344;2023-04-06T02:32:31;489.07;;;461.50;;
2824;SDS011;1420;51.324;12.344;2023-04-06T02:34:58;514.15;;;486.02;;
2824;SDS011;1420;51.324;12.344;2023-04-06T02:37:25;506.55;;;479.27;;
2824;SDS011;1420;51.324;12.344;2023-04-06T02:39:52;537.75;;;509.02;;
2824;SDS011;1420;51.324;12.344;2023-04-06T02:42:20;507.83;;;480.85;;
2824;SDS011;1420;51.324;12.344;2023-04-06T02:44:47;527.87;;;499.85;;
2824;SDS011;1420;51.324;12.344;2023-04-06T02:47:15;518.60;;;491.00;;
2824;SDS011;1420;51.324;12.344;2023-04-06T02:49:42;475.40;;;449.45;;
2824;SDS011;1420;51.324;12.344;2023-04-06T02:52:09;482.73;;;456.57;;
2824;SDS011;1420;51.324;12.344;2023-04-06T02:54:36;525.75;;;496.93;;
2824;SDS011;1420;51.324;12.344;2023-04-06T02:57:04;511.97;;;484.15;;
2824;SDS011;1420;51.324;12.344;2023-04-06T02:59:31;492.87;;;466.65;;
2824;SDS011;1420;51.324;12.344;2023-04-06T03:01:59;528.82;;;500.95;;
2824;SDS011;1420;51.324;12.344;2023-04-06T03:04:26;531.42;;;503.37;;
2824;SDS011;1420;51.324;12.344;2023-04-06T03:06:53;509.88;;;482.50;;
2824;SDS011;1420;51.324;12.344;2023-04-06T03:09:20;480.22;;;455.13;;
2824;SDS011;1420;51.324;12.344;2023-04-06T03:11:49;524.73;;;496.55;;
2824;SDS011;1420;51.324;12.344;2023-04-06T03:14:16;526.07;;;497.55;;
2824;SDS011;1420;51.324;12.344;2023-04-06T03:16:43;509.25;;;481.53;;
2824;SDS011;1420;51.324;12.344;2023-04-06T03:19:10;507.95;;;480.53;;
2824;SDS011;1420;51.324;12.344;2023-04-06T03:21:38;546.37;;;516.87;;
2824;SDS011;1420;51.324;12.344;2023-04-06T03:24:07;481.58;;;455.97;;
2824;SDS011;1420;51.324;12.344;2023-04-06T03:26:34;538.55;;;509.08;;
2824;SDS011;1420;51.324;12.344;2023-04-06T03:29:01;526.75;;;498.40;;
2824;SDS011;1420;51.324;12.344;2023-04-06T03:31:29;530.62;;;502.57;;
2824;SDS011;1420;51.324;12.344;2023-04-06T03:33:57;592.83;;;560.55;;
2824;SDS011;1420;51.324;12.344;2023-04-06T03:36:25;550.75;;;521.42;;
2824;SDS011;1420;51.324;12.344;2023-04-06T03:38:52;579.57;;;548.67;;
2824;SDS011;1420;51.324;12.344;2023-04-06T03:41:21;550.40;;;520.53;;
2824;SDS011;1420;51.324;12.344;2023-04-06T03:43:49;600.83;;;568.22;;
2824;SDS011;1420;51.324;12.344;2023-04-06T03:46:16;621.98;;;587.90;;
2824;SDS011;1420;51.324;12.344;2023-04-06T03:48:43;570.33;;;539.93;;
2824;SDS011;1420;51.324;12.344;2023-04-06T03:51:10;574.35;;;543.25;;
2824;SDS011;1420;51.324;12.344;2023-04-06T03:53:37;575.75;;;544.77;;
2824;SDS011;1420;51.324;12.344;2023-04-06T03:56:05;622.77;;;589.37;;
2824;SDS011;1420;51.324;12.344;2023-04-06T03:58:32;688.55;;;649.53;;
2824;SDS011;1420;51.324;12.344;2023-04-06T04:01:00;669.37;;;632.95;;
2824;SDS011;1420;51.324;12.344;2023-04-06T04:03:27;658.38;;;622.58;;
2824;SDS011;1420;51.324;12.344;2023-04-06T04:05:54;665.47;;;628.30;;
2824;SDS011;1420;51.324;12.344;2023-04-06T04:08:22;668.63;;;631.20;;
2824;SDS011;1420;51.324;12.344;2023-04-06T04:10:50;669.00;;;631.07;;
2824;SDS011;1420;51.324;12.344;2023-04-06T04:13:18;674.70;;;636.60;;
2824;SDS011;1420;51.324;12.344;2023-04-06T04:15:45;683.67;;;645.25;;
2824;SDS011;1420;51.324;12.344;2023-04-06T04:18:12;680.18;;;642.13;;
2824;SDS011;1420;51.324;12.344;2023-04-06T04:20:39;706.42;;;666.45;;
2824;SDS011;1420;51.324;12.344;2023-04-06T04:23:06;707.97;;;668.03;;
2824;SDS011;1420;51.324;12.344;2023-04-06T04:25:34;657.73;;;620.75;;
2824;SDS011;1420;51.324;12.344;2023-04-06T04:28:02;709.35;;;668.68;;
2824;SDS011;1420;51.324;12.344;2023-04-06T04:30:29;717.28;;;676.18;;
2824;SDS011;1420;51.324;12.344;2023-04-06T04:32:56;692.78;;;652.85;;
2824;SDS011;1420;51.324;12.344;2023-04-06T04:35:23;771.53;;;725.98;;
2824;SDS011;1420;51.324;12.344;2023-04-06T04:37:51;762.93;;;716.82;;
2824;SDS011;1420;51.324;12.344;2023-04-06T04:40:19;685.75;;;644.50;;
2824;SDS011;1420;51.324;12.344;2023-04-06T04:42:48;681.17;;;641.43;;
2824;SDS011;1420;51.324;12.344;2023-04-06T04:45:14;742.45;;;699.37;;
2824;SDS011;1420;51.324;12.344;2023-04-06T04:47:42;694.08;;;654.18;;
2824;SDS011;1420;51.324;12.344;2023-04-06T04:50:09;723.40;;;681.50;;
2824;SDS011;1420;51.324;12.344;2023-04-06T04:52:37;712.85;;;671.85;;
2824;SDS011;1420;51.324;12.344;2023-04-06T04:55:04;727.20;;;684.87;;
2824;SDS011;1420;51.324;12.344;2023-04-06T04:57:32;725.47;;;682.53;;
2824;SDS011;1420;51.324;12.344;2023-04-06T05:00:00;753.27;;;707.88;;
2824;SDS011;1420;51.324;12.344;2023-04-06T05:02:27;765.47;;;719.85;;
2824;SDS011;1420;51.324;12.344;2023-04-06T05:04:54;726.15;;;682.50;;
2824;SDS011;1420;51.324;12.344;2023-04-06T05:07:22;847.28;;;794.92;;
2824;SDS011;1420;51.324;12.344;2023-04-06T05:09:49;747.50;;;703.25;;
2824;SDS011;1420;51.324;12.344;2023-04-06T05:12:16;754.27;;;710.47;;
2824;SDS011;1420;51.324;12.344;2023-04-06T05:14:44;754.92;;;709.65;;
2824;SDS011;1420;51.324;12.344;2023-04-06T05:17:11;730.50;;;687.28;;
2824;SDS011;1420;51.324;12.344;2023-04-06T05:19:38;755.55;;;711.47;;
2824;SDS011;1420;51.324;12.344;2023-04-06T05:22:06;771.42;;;725.28;;
2824;SDS011;1420;51.324;12.344;2023-04-06T05:24:35;723.78;;;681.38;;
2824;SDS011;1420;51.324;12.344;2023-04-06T05:27:02;770.10;;;725.23;;
2824;SDS011;1420;51.324;12.344;2023-04-06T05:29:29;738.38;;;692.47;;
2824;SDS011;1420;51.324;12.344;2023-04-06T05:31:56;635.70;;;600.68;;
2824;SDS011;1420;51.324;12.344;2023-04-06T05:34:24;652.98;;;616.07;;
2824;SDS011;1420;51.324;12.344;2023-04-06T05:36:52;727.63;;;684.43;;
2824;SDS011;1420;51.324;12.344;2023-04-06T05:39:19;759.13;;;715.72;;
2824;SDS011;1420;51.324;12.344;2023-04-06T05:41:46;728.13;;;687.37;;
2824;SDS011;1420;51.324;12.344;2023-04-06T05:44:14;652.85;;;616.33;;
2824;SDS011;1420;51.324;12.344;2023-04-06T05:46:42;646.73;;;610.80;;
2824;SDS011;1420;51.324;12.344;2023-04-06T05:49:10;605.52;;;572.92;;
2824;SDS011;1420;51.324;12.344;2023-04-06T05:51:37;582.85;;;551.97;;
2824;SDS011;1420;51.324;12.344;2023-04-06T05:54:04;482.62;;;457.67;;
2824;SDS011;1420;51.324;12.344;2023-04-06T05:56:32;415.90;;;393.93;;
2824;SDS011;1420;51.324;12.344;2023-04-06T05:59:00;515.43;;;488.12;;
2824;SDS011;1420;51.324;12.344;2023-04-06T06:01:28;547.13;;;518.15;;
2824;SDS011;1420;51.324;12.344;2023-04-06T06:03:55;460.30;;;435.80;;
2824;SDS011;1420;51.324;12.344;2023-04-06T06:06:23;381.27;;;361.12;;
2824;SDS011;1420;51.324;12.344;2023-04-06T06:08:50;390.73;;;370.00;;
2824;SDS011;1420;51.324;12.344;2023-04-06T06:11:17;498.55;;;472.40;;
2824;SDS011;1420;51.324;12.344;2023-04-06T06:13:44;483.18;;;457.47;;
2824;SDS011;1420;51.324;12.344;2023-04-06T06:16:12;407.28;;;385.63;;
2824;SDS011;1420;51.324;12.344;2023-04-06T06:18:40;510.55;;;483.78;;
2824;SDS011;1420;51.324;12.344;2023-04-06T06:21:07;550.58;;;521.68;;
2824;SDS011;1420;51.324;12.344;2023-04-06T06:23:34;642.22;;;608.65;;
2824;SDS011;1420;51.324;12.344;2023-04-06T06:26:01;708.15;;;668.65;;
2824;SDS011;1420;51.324;12.344;2023-04-06T06:28:29;793.38;;;747.45;;
2824;SDS011;1420;51.324;12.344;2023-04-06T06:30:56;838.73;;;790.37;;
2824;SDS011;1420;51.324;12.344;2023-04-06T06:33:24;881.08;;;827.50;;
2824;SDS011;1420;51.324;12.344;2023-04-06T06:35:52;859.70;;;808.06;;
2824;SDS011;1420;51.324;12.344;2023-04-06T06:38:20;889.68;;;835.10;;
2824;SDS011;1420;51.324;12.344;2023-04-06T06:40:48;878.22;;;825.96;;
2824;SDS011;1420;51.324;12.344;2023-04-06T06:43:15;878.64;;;824.72;;
2824;SDS011;1420;51.324;12.344;2023-04-06T06:45:42;883.64;;;829.48;;
2824;SDS011;1420;51.324;12.344;2023-04-06T06:48:09;907.38;;;851.66;;
2824;SDS011;1420;51.324;12.344;2023-04-06T06:50:36;882.78;;;828.86;;
2824;SDS011;1420;51.324;12.344;2023-04-06T06:53:04;905.32;;;850.56;;
2824;SDS011;1420;51.324;12.344;2023-04-06T06:55:32;849.96;;;798.12;;
2824;SDS011;1420;51.324;12.344;2023-04-06T06:58:00;910.00;;;855.38;;
2824;SDS011;1420;51.324;12.344;2023-04-06T07:00:27;901.28;;;846.34;;
2824;SDS011;1420;51.324;12.344;2023-04-06T07:02:54;912.66;;;857.08;;
2824;SDS011;1420;51.324;12.344;2023-04-06T07:05:21;894.94;;;838.88;;
2824;SDS011;1420;51.324;12.344;2023-04-06T07:07:49;915.72;;;858.24;;
2824;SDS011;1420;51.324;12.344;2023-04-06T07:10:16;999.22;;;930.28;;
2824;SDS011;1420;51.324;12.344;2023-04-06T07:12:43;1005.44;;;939.64;;
2824;SDS011;1420;51.324;12.344;2023-04-06T07:15:10;1003.60;;;936.74;;
2824;SDS011;1420;51.324;12.344;2023-04-06T07:17:37;1087.28;;;999.66;;
2824;SDS011;1420;51.324;12.344;2023-04-06T07:20:05;1107.86;;;999.90;;
2824;SDS011;1420;51.324;12.344;2023-04-06T07:22:32;1090.02;;;999.90;;
2824;SDS011;1420;51.324;12.344;2023-04-06T07:24:59;1104.84;;;999.90;;
2824;SDS011;1420;51.324;12.344;2023-04-06T07:27:27;1054.74;;;979.04;;
2824;SDS011;1420;51.324;12.344;2023-04-06T07:29:54;1999.90;;;999.90;;
2824;SDS011;1420;51.324;12.344;2023-04-06T07:32:21;911.60;;;847.38;;
2824;SDS011;1420;51.324;12.344;2023-04-06T07:34:48;1077.60;;;993.46;;
2824;SDS011;1420;51.324;12.344;2023-04-06T07:37:15;1166.60;;;999.90;;
2824;SDS011;1420;51.324;12.344;2023-04-06T07:39:43;1038.70;;;962.98;;
2824;SDS011;1420;51.324;12.344;2023-04-06T07:42:10;1049.60;;;974.04;;
2824;SDS011;1420;51.324;12.344;2023-04-06T07:44:38;1106.94;;;999.90;;
2824;SDS011;1420;51.324;12.344;2023-04-06T07:47:05;1241.58;;;999.90;;
2824;SDS011;1420;51.324;12.344;2023-04-06T07:49:32;1630.38;;;985.84;;
2824;SDS011;1420;51.324;12.344;2023-04-06T07:51:59;1269.38;;;999.90;;
2824;SDS011;1420;51.324;12.344;2023-04-06T07:54:27;1112.10;;;999.90;;
2824;SDS011;1420;51.324;12.344;2023-04-06T07:56:55;1192.96;;;999.90;;
2824;SDS011;1420;51.324;12.344;2023-04-06T07:59:23;1116.00;;;999.90;;
2824;SDS011;1420;51.324;12.344;2023-04-06T08:01:50;1131.36;;;999.90;;
2824;SDS011;1420;51.324;12.344;2023-04-06T08:04:17;1154.28;;;999.90;;
2824;SDS011;1420;51.324;12.344;2023-04-06T08:06:45;1114.96;;;852.28;;
2824;SDS011;1420;51.324;12.344;2023-04-06T08:09:13;1056.74;;;962.64;;
2824;SDS011;1420;51.324;12.344;2023-04-06T08:11:40;1194.94;;;999.90;;
2824;SDS011;1420;51.324;12.344;2023-04-06T08:14:08;1161.10;;;999.90;;
2824;SDS011;1420;51.324;12.344;2023-04-06T08:16:35;1242.50;;;999.90;;
2824;SDS011;1420;51.324;12.344;2023-04-06T08:19:02;776.82;;;691.56;;
2824;SDS011;1420;51.324;12.344;2023-04-06T08:21:29;1247.60;;;999.90;;
2824;SDS011;1420;51.324;12.344;2023-04-06T08:23:56;1118.20;;;997.40;;
2824;SDS011;1420;51.324;12.344;2023-04-06T08:26:24;1241.16;;;999.90;;
2824;SDS011;1420;51.324;12.344;2023-04-06T08:28:52;1217.10;;;725.72;;
2824;SDS011;1420;51.324;12.344;2023-04-06T08:31:19;1999.90;;;999.90;;
2824;SDS011;1420;51.324;12.344;2023-04-06T08:33:46;1999.90;;;999.90;;
2824;SDS011;1420;51.324;12.344;2023-04-06T08:36:13;1999.90;;;999.90;;
2824;SDS011;1420;51.324;12.344;2023-04-06T08:38:41;1999.90;;;999.90;;
2824;SDS011;1420;51.324;12.344;2023-04-06T08:41:09;1325.78;;;660.80;;
2824;SDS011;1420;51.324;12.344;2023-04-06T08:43:47;1999.90;;;999.90;;
2824;SDS011;1420;51.324;12.344;2023-04-06T08:46:15;1999.90;;;999.90;;
2824;SDS011;1420;51.324;12.344;2023-04-06T08:48:43;1999.90;;;999.90;;
2824;SDS011;1420;51.324;12.344;2023-04-06T08:51:11;1999.90;;;999.90;;
2824;SDS011;1420;51.324;12.344;2023-04-06T08:53:38;1999.90;;;999.90;;
2824;SDS011;1420;51.324;12.344;2023-04-06T08:56:05;1999.90;;;999.90;;
2824;SDS011;1420;51.324;12.344;2023-04-06T08:58:34;1999.90;;;999.90;;
2824;SDS011;1420;51.324;12.344;2023-04-06T09:01:00;1999.90;;;999.90;;
2824;SDS011;1420;51.324;12.344;2023-04-06T09:03:28;1999.90;;;999.90;;
2824;SDS011;1420;51.324;12.344;2023-04-06T09:05:54;1999.90;;;999.90;;
2824;SDS011;1420;51.324;12.344;2023-04-06T09:08:22;1999.90;;;999.90;;
2824;SDS011;1420;51.324;12.344;2023-04-06T09:10:49;1999.90;;;999.90;;
2824;SDS011;1420;51.324;12.344;2023-04-06T09:13:16;1999.90;;;999.90;;
2824;SDS011;1420;51.324;12.344;2023-04-06T09:15:44;1999.90;;;999.90;;
2824;SDS011;1420;51.324;12.344;2023-04-06T09:18:11;1999.90;;;999.90;;
2824;SDS011;1420;51.324;12.344;2023-04-06T09:20:38;1999.90;;;999.90;;
2824;SDS011;1420;51.324;12.344;2023-04-06T09:23:05;1999.90;;;999.90;;
2824;SDS011;1420;51.324;12.344;2023-04-06T09:25:33;1999.90;;;999.90;;
2824;SDS011;1420;51.324;12.344;2023-04-06T09:28:01;1999.90;;;999.90;;
2824;SDS011;1420;51.324;12.344;2023-04-06T09:30:27;1999.90;;;999.90;;
2824;SDS011;1420;51.324;12.344;2023-04-06T09:32:55;1999.90;;;999.90;;
2824;SDS011;1420;51.324;12.344;2023-04-06T09:35:22;1999.90;;;999.90;;
2824;SDS011;1420;51.324;12.344;2023-04-06T09:37:50;1999.90;;;999.90;;
2824;SDS011;1420;51.324;12.344;2023-04-06T09:40:17;1999.90;;;999.90;;
2824;SDS011;1420;51.324;12.344;2023-04-06T09:42:45;1999.90;;;999.90;;
2824;SDS011;1420;51.324;12.344;2023-04-06T09:45:13;1999.90;;;999.90;;
2824;SDS011;1420;51.324;12.344;2023-04-06T09:47:42;1999.90;;;999.90;;
2824;SDS011;1420;51.324;12.344;2023-04-06T09:50:11;1999.90;;;999.90;;
2824;SDS011;1420;51.324;12.344;2023-04-06T09:52:42;1999.90;;;999.90;;
2824;SDS011;1420;51.324;12.344;2023-04-06T09:55:11;1999.90;;;999.90;;
2824;SDS011;1420;51.324;12.344;2023-04-06T09:57:44;1999.90;;;999.90;;
2824;SDS011;1420;51.324;12.344;2023-04-06T10:00:11;1999.90;;;999.90;;
2824;SDS011;1420;51.324;12.344;2023-04-06T10:03:19;1999.90;;;999.90;;
2824;SDS011;1420;51.324;12.344;2023-04-06T10:05:27;1999.90;;;999.90;;
2824;SDS011;1420;51.324;12.344;2023-04-06T10:07:50;1999.90;;;999.90;;
2824;SDS011;1420;51.324;12.344;2023-04-06T10:10:18;1999.90;;;999.90;;
2824;SDS011;1420;51.324;12.344;2023-04-06T10:12:46;1999.90;;;999.90;;
2824;SDS011;1420;51.324;12.344;2023-04-06T10:15:14;1999.90;;;999.90;;
2824;SDS011;1420;51.324;12.344;2023-04-06T10:17:41;1999.90;;;999.90;;
2824;SDS011;1420;51.324;12.344;2023-04-06T10:20:10;1999.90;;;999.90;;
2824;SDS011;1420;51.324;12.344;2023-04-06T10:22:45;1999.90;;;999.90;;
2824;SDS011;1420;51.324;12.344;2023-04-06T10:25:11;1999.90;;;999.90;;
2824;SDS011;1420;51.324;12.344;2023-04-06T10:27:38;1999.90;;;999.90;;
2824;SDS011;1420;51.324;12.344;2023-04-06T10:30:06;1999.90;;;999.90;;
2824;SDS011;1420;51.324;12.344;2023-04-06T10:32:35;1999.90;;;999.90;;
2824;SDS011;1420;51.324;12.344;2023-04-06T10:35:06;1999.90;;;999.90;;
2824;SDS011;1420;51.324;12.344;2023-04-06T10:40:19;1999.90;;;999.90;;
2824;SDS011;1420;51.324;12.344;2023-04-06T10:42:49;1999.90;;;999.90;;
2824;SDS011;1420;51.324;12.344;2023-04-06T10:45:18;1999.90;;;999.90;;
2824;SDS011;1420;51.324;12.344;2023-04-06T10:47:45;1999.90;;;999.90;;
2824;SDS011;1420;51.324;12.344;2023-04-06T10:50:14;1999.90;;;999.90;;
2824;SDS011;1420;51.324;12.344;2023-04-06T10:52:42;1999.90;;;999.90;;
2824;SDS011;1420;51.324;12.344;2023-04-06T10:55:09;1999.90;;;999.90;;
2824;SDS011;1420;51.324;12.344;2023-04-06T10:57:36;1999.90;;;999.90;;
2824;SDS011;1420;51.324;12.344;2023-04-06T11:00:04;1999.90;;;999.90;;
2824;SDS011;1420;51.324;12.344;2023-04-06T11:02:32;1999.90;;;999.90;;
2824;SDS011;1420;51.324;12.344;2023-04-06T11:04:59;1999.90;;;999.90;;
2824;SDS011;1420;51.324;12.344;2023-04-06T11:07:27;1999.90;;;999.90;;
2824;SDS011;1420;51.324;12.344;2023-04-06T11:09:54;1999.90;;;999.90;;
2824;SDS011;1420;51.324;12.344;2023-04-06T11:12:23;1999.90;;;999.90;;
2824;SDS011;1420;51.324;12.344;2023-04-06T11:14:55;1999.90;;;999.90;;
2824;SDS011;1420;51.324;12.344;2023-04-06T11:17:25;1999.90;;;999.90;;
2824;SDS011;1420;51.324;12.344;2023-04-06T11:19:52;1999.90;;;999.90;;
2824;SDS011;1420;51.324;12.344;2023-04-06T11:22:19;1999.90;;;999.90;;
2824;SDS011;1420;51.324;12.344;2023-04-06T11:24:46;1999.90;;;999.90;;
2824;SDS011;1420;51.324;12.344;2023-04-06T11:27:14;1999.90;;;999.90;;
2824;SDS011;1420;51.324;12.344;2023-04-06T11:29:42;1999.90;;;999.90;;
2824;SDS011;1420;51.324;12.344;2023-04-06T11:32:10;1999.90;;;999.90;;
2824;SDS011;1420;51.324;12.344;2023-04-06T11:34:37;1999.90;;;999.90;;
2824;SDS011;1420;51.324;12.344;2023-04-06T11:37:07;1999.90;;;999.90;;
2824;SDS011;1420;51.324;12.344;2023-04-06T11:39:39;1999.90;;;999.90;;
2824;SDS011;1420;51.324;12.344;2023-04-06T11:42:06;1999.90;;;999.90;;
2824;SDS011;1420;51.324;12.344;2023-04-06T11:44:34;1999.90;;;999.90;;
2824;SDS011;1420;51.324;12.344;2023-04-06T11:47:02;1999.90;;;999.90;;
2824;SDS011;1420;51.324;12.344;2023-04-06T11:49:30;1999.90;;;999.90;;
2824;SDS011;1420;51.324;12.344;2023-04-06T11:51:57;1999.90;;;999.90;;
2824;SDS011;1420;51.324;12.344;2023-04-06T11:54:30;1999.90;;;999.90;;
2824;SDS011;1420;51.324;12.344;2023-04-06T11:56:59;1999.90;;;999.90;;
2824;SDS011;1420;51.324;12.344;2023-04-06T11:59:27;1999.90;;;999.90;;
2824;SDS011;1420;51.324;12.344;2023-04-06T12:01:54;1999.90;;;999.90;;
2824;SDS011;1420;51.324;12.344;2023-04-06T12:04:21;1999.90;;;999.90;;
2824;SDS011;1420;51.324;12.344;2023-04-06T12:06:48;1999.90;;;999.90;;
2824;SDS011;1420;51.324;12.344;2023-04-06T12:09:16;1999.90;;;999.90;;
2824;SDS011;1420;51.324;12.344;2023-04-06T12:11:44;1999.90;;;999.90;;
2824;SDS011;1420;51.324;12.344;2023-04-06T12:14:12;1999.90;;;999.90;;
2824;SDS011;1420;51.324;12.344;2023-04-06T12:16:39;1999.90;;;999.90;;
2824;SDS011;1420;51.324;12.344;2023-04-06T12:19:06;1999.90;;;999.90;;
2824;SDS011;1420;51.324;12.344;2023-04-06T12:21:35;1999.90;;;999.90;;
2824;SDS011;1420;51.324;12.344;2023-04-06T12:24:02;1999.90;;;999.90;;
2824;SDS011;1420;51.324;12.344;2023-04-06T12:26:30;1999.90;;;999.90;;
2824;SDS011;1420;51.324;12.344;2023-04-06T12:28:59;1999.90;;;999.90;;
2824;SDS011;1420;51.324;12.344;2023-04-06T12:31:28;1999.90;;;999.90;;
2824;SDS011;1420;51.324;12.344;2023-04-06T12:33:55;1999.90;;;999.90;;
2824;SDS011;1420;51.324;12.344;2023-04-06T12:36:23;1999.90;;;999.90;;
2824;SDS011;1420;51.324;12.344;2023-04-06T12:38:50;1999.90;;;999.90;;
2824;SDS011;1420;51.324;12.344;2023-04-06T12:41:17;1999.90;;;999.90;;
2824;SDS011;1420;51.324;12.344;2023-04-06T12:43:45;1999.90;;;999.90;;
2824;SDS011;1420;51.324;12.344;2023-04-06T12:46:14;1999.90;;;999.90;;
2824;SDS011;1420;51.324;12.344;2023-04-06T12:48:41;1999.90;;;999.90;;
2824;SDS011;1420;51.324;12.344;2023-04-06T12:51:08;1999.90;;;999.90;;
2824;SDS011;1420;51.324;12.344;2023-04-06T12:53:35;1999.90;;;999.90;;
2824;SDS011;1420;51.324;12.344;2023-04-06T12:56:10;1999.90;;;999.90;;
2824;SDS011;1420;51.324;12.344;2023-04-06T12:58:31;1999.90;;;999.90;;
2824;SDS011;1420;51.324;12.344;2023-04-06T13:00:58;1999.90;;;999.90;;
2824;SDS011;1420;51.324;12.344;2023-04-06T13:03:25;1999.90;;;999.90;;
2824;SDS011;1420;51.324;12.344;2023-04-06T13:05:52;1999.90;;;999.90;;
2824;SDS011;1420;51.324;12.344;2023-04-06T13:08:20;1999.90;;;999.90;;
2824;SDS011;1420;51.324;12.344;2023-04-06T13:10:47;1999.90;;;999.90;;
2824;SDS011;1420;51.324;12.344;2023-04-06T13:13:15;1999.90;;;999.90;;
2824;SDS011;1420;51.324;12.344;2023-04-06T13:15:41;1999.90;;;999.90;;
2824;SDS011;1420;51.324;12.344;2023-04-06T13:18:09;1999.90;;;999.90;;
2824;SDS011;1420;51.324;12.344;2023-04-06T13:20:36;1999.90;;;999.90;;
2824;SDS011;1420;51.324;12.344;2023-04-06T13:23:03;1999.90;;;999.90;;
2824;SDS011;1420;51.324;12.344;2023-04-06T13:25:30;1999.90;;;999.90;;
2824;SDS011;1420;51.324;12.344;2023-04-06T13:27:58;1999.90;;;999.90;;
2824;SDS011;1420;51.324;12.344;2023-04-06T13:30:26;1999.90;;;999.90;;
2824;SDS011;1420;51.324;12.344;2023-04-06T13:32:53;1999.90;;;999.90;;
2824;SDS011;1420;51.324;12.344;2023-04-06T13:35:21;1999.90;;;999.90;;
2824;SDS011;1420;51.324;12.344;2023-04-06T13:37:48;1999.90;;;999.90;;
2824;SDS011;1420;51.324;12.344;2023-04-06T13:40:16;1999.90;;;999.90;;
2824;SDS011;1420;51.324;12.344;2023-04-06T13:42:43;1999.90;;;999.90;;
2824;SDS011;1420;51.324;12.344;2023-04-06T13:45:10;1999.90;;;999.90;;
2824;SDS011;1420;51.324;12.344;2023-04-06T13:47:37;1999.90;;;999.90;;
2824;SDS011;1420;51.324;12.344;2023-04-06T13:50:05;1999.90;;;999.90;;
2824;SDS011;1420;51.324;12.344;2023-04-06T13:52:33;1999.90;;;999.90;;
2824;SDS011;1420;51.324;12.344;2023-04-06T13:55:01;1999.90;;;999.90;;
2824;SDS011;1420;51.324;12.344;2023-04-06T13:57:28;1999.90;;;999.90;;
2824;SDS011;1420;51.324;12.344;2023-04-06T13:59:55;1999.90;;;999.90;;
2824;SDS011;1420;51.324;12.344;2023-04-06T14:02:22;1999.90;;;999.90;;
2824;SDS011;1420;51.324;12.344;2023-04-06T14:04:50;1999.90;;;999.90;;
2824;SDS011;1420;51.324;12.344;2023-04-06T14:07:18;1999.90;;;999.90;;